Time;durP1;ratioP1;P1;durP2;ratioP2;P2;SDS_P1;SDS_P2;PMS_P1;PMS_P2;Temp;Humidity;BMP_temperature;BMP_pressure;BME280_temperature;BME280_humidity;BME280_pressure;Samples;Min_cycle;Max_cycle;Signal;HPM_P1;HPM_P2
2024/01/27 00:01:13;;;;;;;8.85;1.05;;;3.30;99.90;;;;;;6096649;23;20014;-90
2024/01/27 00:03:39;;;;;;;6.80;1.38;;;3.30;99.90;;;;;;6121655;23;20049;-91
2024/01/27 00:06:05;;;;;;;10.63;2.38;;;3.30;99.90;;;;;;6120914;23;20022;-90
2024/01/27 00:08:30;;;;;;;12.77;2.47;;;3.30;99.90;;;;;;6097024;23;20021;-90
2024/01/27 00:10:56;;;;;;;5.03;2.90;;;3.20;99.90;;;;;;6096901;23;20466;-92
2024/01/27 00:13:21;;;;;;;6.22;1.48;;;3.20;99.90;;;;;;6122132;23;20456;-90
2024/01/27 00:15:47;;;;;;;12.30;1.73;;;3.20;99.90;;;;;;6096833;23;20097;-90
2024/01/27 00:18:13;;;;;;;4.18;1.55;;;3.20;99.90;;;;;;6122179;23;20510;-91
2024/01/27 00:20:38;;;;;;;9.35;1.75;;;3.10;99.90;;;;;;6122846;23;20022;-90
2024/01/27 00:23:04;;;;;;;2.30;0.63;;;3.10;99.90;;;;;;6123921;23;20013;-91
2024/01/27 00:25:29;;;;;;;12.10;1.83;;;3.10;99.90;;;;;;6097113;23;20014;-91
2024/01/27 00:27:55;;;;;;;11.13;1.92;;;3.20;99.90;;;;;;6122767;23;20014;-90
2024/01/27 00:30:21;;;;;;;11.77;1.98;;;3.20;99.90;;;;;;6146218;23;20613;-90
2024/01/27 00:32:46;;;;;;;12.02;1.52;;;3.20;99.90;;;;;;6121597;23;20026;-91
2024/01/27 00:35:14;;;;;;;14.70;2.30;;;3.20;99.90;;;;;;6096665;23;20017;-90
2024/01/27 00:37:41;;;;;;;6.45;1.45;;;3.20;99.90;;;;;;6121576;23;20013;-90
2024/01/27 00:40:12;;;;;;;16.33;2.53;;;3.20;99.90;;;;;;6122534;23;20722;-90
2024/01/27 00:42:38;;;;;;;15.25;3.83;;;3.20;99.90;;;;;;6096860;23;20010;-90
2024/01/27 00:45:05;;;;;;;12.05;2.45;;;3.10;99.90;;;;;;6096503;23;20148;-91
2024/01/27 00:47:31;;;;;;;11.20;2.35;;;3.10;99.90;;;;;;6120957;23;20014;-91
2024/01/27 00:49:56;;;;;;;8.85;2.50;;;3.10;99.90;;;;;;6095462;23;20006;-91
2024/01/27 00:52:22;;;;;;;16.23;3.35;;;3.10;99.90;;;;;;6120364;23;20486;-91
2024/01/27 00:54:48;;;;;;;8.98;2.17;;;3.10;99.90;;;;;;6095031;23;20010;-90
2024/01/27 00:57:13;;;;;;;14.25;2.42;;;3.00;99.90;;;;;;6119923;23;20018;-91
2024/01/27 00:59:39;;;;;;;12.25;2.83;;;3.00;99.90;;;;;;6120234;23;20009;-91
2024/01/27 01:02:06;;;;;;;8.80;2.17;;;3.00;99.90;;;;;;6095820;23;20052;-91
2024/01/27 01:04:31;;;;;;;14.75;2.88;;;3.00;99.90;;;;;;6095867;23;20022;-91
2024/01/27 01:06:57;;;;;;;8.75;2.53;;;3.00;99.90;;;;;;6096534;23;20053;-89
2024/01/27 01:09:23;;;;;;;7.90;1.40;;;3.00;99.90;;;;;;6120856;23;20465;-90
2024/01/27 01:11:48;;;;;;;10.27;2.70;;;3.00;99.90;;;;;;6120459;23;20060;-90
2024/01/27 01:14:14;;;;;;;9.27;2.10;;;3.00;99.90;;;;;;6122966;23;20017;-90
2024/01/27 01:16:40;;;;;;;17.60;3.08;;;3.00;99.90;;;;;;6120459;23;20360;-90
2024/01/27 01:19:06;;;;;;;5.93;1.80;;;3.00;99.90;;;;;;6095295;23;20409;-90
2024/01/27 01:21:31;;;;;;;10.43;2.00;;;3.00;99.90;;;;;;6095809;23;20028;-91
2024/01/27 01:23:57;;;;;;;6.50;1.23;;;3.00;99.90;;;;;;6096413;23;20017;-91
2024/01/27 01:26:24;;;;;;;5.50;1.13;;;3.00;99.90;;;;;;6145316;23;20082;-90
2024/01/27 01:28:50;;;;;;;13.13;2.20;;;3.00;99.90;;;;;;6122027;23;20519;-91
2024/01/27 01:31:16;;;;;;;19.90;2.70;;;3.00;99.90;;;;;;6096202;23;20352;-90
2024/01/27 01:33:42;;;;;;;3.08;1.30;;;3.00;99.90;;;;;;6096371;23;20014;-91
2024/01/27 01:36:08;;;;;;;3.65;1.17;;;2.90;99.90;;;;;;6120393;23;20508;-92
2024/01/27 01:38:34;;;;;;;6.35;1.63;;;2.90;99.90;;;;;;6120776;23;20102;-91
2024/01/27 01:41:00;;;;;;;4.50;1.13;;;2.90;99.90;;;;;;6094910;23;20017;-91
2024/01/27 01:43:25;;;;;;;10.95;2.45;;;2.90;99.90;;;;;;6097061;23;20065;-91
2024/01/27 01:45:53;;;;;;;10.18;1.75;;;2.90;99.90;;;;;;6096068;23;20018;-91
2024/01/27 01:48:20;;;;;;;5.72;2.50;;;3.00;99.90;;;;;;6119663;23;20077;-91
2024/01/27 01:50:46;;;;;;;15.18;3.40;;;2.90;99.90;;;;;;6119795;23;20045;-91
2024/01/27 01:53:13;;;;;;;9.05;2.28;;;2.90;99.90;;;;;;6121415;23;20018;-91
2024/01/27 01:55:39;;;;;;;5.28;1.35;;;2.90;99.90;;;;;;6094479;23;20025;-91
2024/01/27 01:58:06;;;;;;;4.13;1.20;;;2.80;99.90;;;;;;6118721;23;20049;-91
2024/01/27 02:00:32;;;;;;;5.20;1.27;;;2.80;99.90;;;;;;6094562;23;20021;-90
2024/01/27 02:02:58;;;;;;;14.90;2.97;;;2.80;99.90;;;;;;6121391;23;20017;-91
2024/01/27 02:05:24;;;;;;;4.82;2.30;;;2.80;99.90;;;;;;6120308;23;20088;-91
2024/01/27 02:07:50;;;;;;;15.38;1.52;;;2.80;99.90;;;;;;6120231;23;20064;-90
2024/01/27 02:10:18;;;;;;;5.65;2.17;;;2.90;99.90;;;;;;6120831;23;20006;-90
2024/01/27 02:12:44;;;;;;;2.28;0.93;;;2.80;99.90;;;;;;6096298;23;20012;-91
2024/01/27 02:15:13;;;;;;;8.98;1.73;;;2.80;99.90;;;;;;6121042;23;20014;-90
2024/01/27 02:17:40;;;;;;;7.75;2.17;;;2.80;99.90;;;;;;6120477;23;20029;-91
2024/01/27 02:20:07;;;;;;;3.60;1.50;;;2.80;99.90;;;;;;6095482;23;20076;-90
2024/01/27 02:22:34;;;;;;;5.07;1.08;;;2.80;99.90;;;;;;6121377;23;20543;-90
2024/01/27 02:24:59;;;;;;;8.18;2.05;;;2.70;99.90;;;;;;6120209;23;20460;-91
2024/01/27 02:27:25;;;;;;;6.93;2.40;;;2.80;99.90;;;;;;6120790;23;20093;-90
2024/01/27 02:29:51;;;;;;;6.60;1.95;;;2.70;99.90;;;;;;6120665;23;20020;-91
2024/01/27 02:32:16;;;;;;;10.60;1.83;;;2.70;99.90;;;;;;6122294;23;20085;-91
2024/01/27 02:34:42;;;;;;;7.60;1.58;;;2.70;99.90;;;;;;6096105;23;20576;-91
2024/01/27 02:37:07;;;;;;;8.60;3.35;;;2.70;99.90;;;;;;6120417;23;20016;-91
2024/01/27 02:39:33;;;;;;;9.45;2.25;;;2.70;99.90;;;;;;6145300;23;20046;-91
2024/01/27 02:41:58;;;;;;;10.27;1.73;;;2.70;99.90;;;;;;6120964;23;20013;-91
2024/01/27 02:44:24;;;;;;;22.20;3.70;;;2.70;99.90;;;;;;6121309;23;20041;-91
2024/01/27 02:46:50;;;;;;;2.67;1.20;;;2.70;99.90;;;;;;6095670;23;20018;-91
2024/01/27 02:49:15;;;;;;;8.52;2.17;;;2.60;99.90;;;;;;6120158;23;20024;-91
2024/01/27 02:51:41;;;;;;;7.45;2.08;;;2.60;99.90;;;;;;6095486;23;20076;-91
2024/01/27 02:54:06;;;;;;;8.60;2.08;;;2.60;99.90;;;;;;6095851;23;20021;-90
2024/01/27 02:56:32;;;;;;;9.73;1.75;;;2.50;99.90;;;;;;6095388;23;20010;-91
2024/01/27 02:58:58;;;;;;;9.05;1.20;;;2.50;99.90;;;;;;6095759;23;20463;-91
2024/01/27 03:01:23;;;;;;;8.27;2.25;;;2.50;99.90;;;;;;6119902;23;20014;-90
2024/01/27 03:03:49;;;;;;;8.63;2.00;;;2.50;99.90;;;;;;6120039;23;20022;-91
2024/01/27 03:06:14;;;;;;;7.57;1.67;;;2.50;99.90;;;;;;6144985;23;20093;-91
2024/01/27 03:08:40;;;;;;;11.48;1.95;;;2.50;99.90;;;;;;6097006;23;20010;-90
2024/01/27 03:11:06;;;;;;;11.55;2.78;;;2.50;99.90;;;;;;6121641;23;20071;-90
2024/01/27 03:13:31;;;;;;;17.95;2.17;;;2.40;99.90;;;;;;6122406;23;20094;-90
2024/01/27 03:15:57;;;;;;;15.07;2.45;;;2.40;99.90;;;;;;6122172;23;20018;-90
2024/01/27 03:18:24;;;;;;;6.00;1.83;;;2.40;99.90;;;;;;6122891;23;20658;-91
2024/01/27 03:20:50;;;;;;;6.43;1.92;;;2.40;99.90;;;;;;6096713;23;20018;-91
2024/01/27 03:23:15;;;;;;;13.82;2.20;;;2.40;99.90;;;;;;6121825;23;20014;-90
2024/01/27 03:25:41;;;;;;;13.07;1.63;;;2.40;99.90;;;;;;6123494;23;20092;-91
2024/01/27 03:28:07;;;;;;;13.63;2.08;;;2.30;99.90;;;;;;6121552;23;20041;-91
2024/01/27 03:30:32;;;;;;;18.35;2.60;;;2.40;99.90;;;;;;6123723;23;20069;-90
2024/01/27 03:32:58;;;;;;;8.60;1.70;;;2.30;99.90;;;;;;6097615;23;20576;-91
2024/01/27 03:35:24;;;;;;;12.45;1.70;;;2.30;99.90;;;;;;6121482;23;20333;-91
2024/01/27 03:37:51;;;;;;;6.93;1.17;;;2.30;99.90;;;;;;6122147;23;20330;-90
2024/01/27 03:40:17;;;;;;;11.43;2.28;;;2.30;99.90;;;;;;6121377;23;20527;-91
2024/01/27 03:42:42;;;;;;;3.05;0.98;;;2.30;99.90;;;;;;6097096;23;20333;-91
2024/01/27 03:45:08;;;;;;;8.10;2.25;;;2.20;99.90;;;;;;6097450;23;20014;-91
2024/01/27 03:47:34;;;;;;;6.70;1.50;;;2.20;99.90;;;;;;6097113;23;20092;-91
2024/01/27 03:49:59;;;;;;;10.50;2.05;;;2.20;99.90;;;;;;6097088;23;20014;-91
2024/01/27 03:52:25;;;;;;;8.25;1.73;;;2.20;99.90;;;;;;6096958;23;20347;-91
2024/01/27 03:54:51;;;;;;;15.20;3.05;;;2.20;99.90;;;;;;6121250;23;20077;-90
2024/01/27 03:57:16;;;;;;;6.97;1.55;;;2.20;99.90;;;;;;6121323;23;20018;-91
2024/01/27 03:59:42;;;;;;;7.97;1.63;;;2.20;99.90;;;;;;6096914;23;20021;-91
2024/01/27 04:02:08;;;;;;;8.25;2.95;;;2.20;99.90;;;;;;6096606;23;20463;-90
2024/01/27 04:04:33;;;;;;;16.75;2.28;;;2.20;99.90;;;;;;6097426;23;20014;-91
2024/01/27 04:06:59;;;;;;;10.05;0.90;;;2.20;99.90;;;;;;6097300;23;20502;-90
2024/01/27 04:09:24;;;;;;;9.77;1.98;;;2.20;99.90;;;;;;6122010;23;20010;-91
2024/01/27 04:11:51;;;;;;;7.72;1.45;;;2.30;99.90;;;;;;6121545;23;20357;-90
2024/01/27 04:14:16;;;;;;;4.68;1.45;;;2.30;99.90;;;;;;6121865;23;20014;-91
2024/01/27 04:16:42;;;;;;;4.40;0.98;;;2.30;99.90;;;;;;6096695;23;20474;-91
2024/01/27 04:19:07;;;;;;;15.00;2.97;;;2.40;99.90;;;;;;6096107;23;20014;-90
2024/01/27 04:21:33;;;;;;;13.15;2.88;;;2.40;99.90;;;;;;6096016;23;20014;-91
2024/01/27 04:23:58;;;;;;;9.38;2.42;;;2.40;99.90;;;;;;6121321;23;20018;-90
2024/01/27 04:26:24;;;;;;;4.18;1.40;;;2.40;99.90;;;;;;6120944;23;20431;-90
2024/01/27 04:28:50;;;;;;;5.95;1.88;;;2.40;99.90;;;;;;6122475;23;20018;-90
2024/01/27 04:31:15;;;;;;;10.50;2.17;;;2.40;99.90;;;;;;6121081;23;20620;-90
2024/01/27 04:33:41;;;;;;;7.72;1.90;;;2.40;99.90;;;;;;6096876;23;20010;-91
2024/01/27 04:36:06;;;;;;;3.47;1.10;;;2.40;99.90;;;;;;6096927;23;20018;-90
2024/01/27 04:38:32;;;;;;;11.65;2.15;;;2.40;99.90;;;;;;6120665;23;20017;-90
2024/01/27 04:40:58;;;;;;;11.07;1.88;;;2.40;99.90;;;;;;6122378;23;20456;-91
2024/01/27 04:43:24;;;;;;;20.52;2.63;;;2.40;99.90;;;;;;6121783;23;20021;-91
2024/01/27 04:45:49;;;;;;;8.57;2.50;;;2.40;99.90;;;;;;6096650;23;20021;-90
2024/01/27 04:48:16;;;;;;;4.53;1.55;;;2.30;99.90;;;;;;6121081;23;20093;-90
2024/01/27 04:50:41;;;;;;;8.82;1.75;;;2.30;99.90;;;;;;6121170;23;20046;-90
2024/01/27 04:53:07;;;;;;;6.18;1.50;;;2.30;99.90;;;;;;6120870;23;20014;-92
2024/01/27 04:55:32;;;;;;;6.10;2.33;;;2.30;99.90;;;;;;6096260;23;20504;-91
2024/01/27 04:57:58;;;;;;;7.38;2.05;;;2.20;99.90;;;;;;6096222;23;20006;-91
2024/01/27 05:00:26;;;;;;;12.52;2.03;;;2.30;99.90;;;;;;6120884;23;20510;-91
2024/01/27 05:02:52;;;;;;;11.77;2.83;;;2.30;99.90;;;;;;6123432;23;20093;-91
2024/01/27 05:05:18;;;;;;;9.65;2.83;;;2.30;99.90;;;;;;6097201;23;20448;-92
2024/01/27 05:07:44;;;;;;;15.23;3.13;;;2.30;99.90;;;;;;6121311;23;20025;-91
2024/01/27 05:10:14;;;;;;;7.75;1.85;;;2.30;99.90;;;;;;6096336;23;20040;-90
2024/01/27 05:12:39;;;;;;;14.93;3.15;;;2.30;99.90;;;;;;6120793;23;20020;-91
2024/01/27 05:15:05;;;;;;;13.02;1.85;;;2.30;99.90;;;;;;6120065;23;20018;-90
2024/01/27 05:17:31;;;;;;;10.05;2.15;;;2.30;99.90;;;;;;6120515;23;20014;-91
2024/01/27 05:19:58;;;;;;;10.23;2.33;;;2.30;99.90;;;;;;6122098;23;20093;-90
2024/01/27 05:22:23;;;;;;;5.30;1.67;;;2.30;99.90;;;;;;6120367;23;20114;-90
2024/01/27 05:24:49;;;;;;;10.75;2.25;;;2.30;99.90;;;;;;6122268;23;20401;-91
2024/01/27 05:27:15;;;;;;;6.93;2.20;;;2.20;99.90;;;;;;6119330;23;20528;-90
2024/01/27 05:29:41;;;;;;;6.40;1.77;;;2.20;99.90;;;;;;6119515;23;20042;-91
2024/01/27 05:32:06;;;;;;;8.13;2.50;;;2.20;99.90;;;;;;6119888;23;20091;-92
2024/01/27 05:34:32;;;;;;;7.90;1.92;;;2.20;99.90;;;;;;6095138;23;20456;-91
2024/01/27 05:36:57;;;;;;;10.10;2.65;;;2.10;99.90;;;;;;6095856;23;20021;-90
2024/01/27 05:39:23;;;;;;;5.25;1.48;;;2.10;99.90;;;;;;6095628;23;20031;-91
2024/01/27 05:41:49;;;;;;;9.55;2.80;;;2.10;99.90;;;;;;6119880;23;20018;-91
2024/01/27 05:44:14;;;;;;;13.32;2.25;;;2.10;99.90;;;;;;6095709;23;20025;-91
2024/01/27 05:46:40;;;;;;;7.63;2.28;;;2.10;99.90;;;;;;6122120;23;20417;-91
2024/01/27 05:49:05;;;;;;;7.05;2.22;;;2.10;99.90;;;;;;6095620;23;20009;-91
2024/01/27 05:51:31;;;;;;;12.68;2.60;;;2.00;99.90;;;;;;6119979;23;20014;-91
2024/01/27 05:53:57;;;;;;;14.65;1.75;;;2.00;99.90;;;;;;6095836;23;20009;-91
2024/01/27 05:56:23;;;;;;;9.85;2.58;;;2.00;99.90;;;;;;6094573;23;20088;-90
2024/01/27 05:58:49;;;;;;;11.50;2.65;;;2.00;99.90;;;;;;6118849;23;20021;-90
2024/01/27 06:01:14;;;;;;;16.70;3.28;;;2.00;99.90;;;;;;6120948;23;20093;-91
2024/01/27 06:03:43;;;;;;;8.40;2.08;;;1.90;99.90;;;;;;6121477;23;20014;-90
2024/01/27 06:06:09;;;;;;;9.85;2.67;;;1.90;99.90;;;;;;6120397;23;20055;-91
2024/01/27 06:08:35;;;;;;;7.05;1.83;;;1.90;99.90;;;;;;6095622;23;20013;-90
2024/01/27 06:11:00;;;;;;;8.27;2.05;;;1.90;99.90;;;;;;6121887;23;20093;-90
2024/01/27 06:13:26;;;;;;;8.02;2.65;;;1.80;99.90;;;;;;6121835;23;20443;-90
2024/01/27 06:15:52;;;;;;;14.07;2.28;;;1.80;99.90;;;;;;6119472;23;20018;-90
2024/01/27 06:18:17;;;;;;;11.70;2.75;;;1.80;99.90;;;;;;6120589;23;20021;-90
2024/01/27 06:20:44;;;;;;;13.43;1.92;;;1.80;99.90;;;;;;6121020;23;20017;-91
2024/01/27 06:23:09;;;;;;;8.07;2.45;;;1.80;99.90;;;;;;6119948;23;20092;-90
2024/01/27 06:25:35;;;;;;;5.75;1.75;;;1.80;99.90;;;;;;6118877;23;20038;-89
2024/01/27 06:28:00;;;;;;;6.70;1.50;;;1.80;99.90;;;;;;6119487;23;20014;-92
2024/01/27 06:30:26;;;;;;;11.68;2.75;;;1.80;99.90;;;;;;6120115;23;20360;-90
2024/01/27 06:32:52;;;;;;;11.40;3.08;;;1.80;99.90;;;;;;6095665;23;20025;-91
2024/01/27 06:35:17;;;;;;;10.85;2.83;;;1.80;99.90;;;;;;6119814;23;20014;-91
2024/01/27 06:37:43;;;;;;;14.05;3.00;;;1.80;99.90;;;;;;6095154;23;20022;-90
2024/01/27 06:40:09;;;;;;;7.13;2.75;;;1.80;99.90;;;;;;6119919;23;20045;-90
2024/01/27 06:42:35;;;;;;;13.07;3.10;;;1.80;99.90;;;;;;6145554;23;20017;-92
2024/01/27 06:45:01;;;;;;;11.73;2.70;;;1.80;99.90;;;;;;6122233;23;20065;-90
2024/01/27 06:47:27;;;;;;;7.28;1.98;;;1.80;99.90;;;;;;6123793;23;20010;-87
2024/01/27 06:49:53;;;;;;;20.45;3.10;;;1.80;99.90;;;;;;6097614;23;20014;-90
2024/01/27 06:52:18;;;;;;;7.50;2.40;;;1.80;99.90;;;;;;6123104;23;20010;-91
2024/01/27 06:54:44;;;;;;;5.88;2.28;;;1.80;99.90;;;;;;6096992;23;20010;-90
2024/01/27 06:57:20;;;;;;;10.18;2.92;;;1.90;99.90;;;;;;6121543;23;20476;-90
2024/01/27 06:59:51;;;;;;;12.48;3.40;;;1.90;99.90;;;;;;6096816;23;20014;-91
2024/01/27 07:02:29;;;;;;;10.90;3.50;;;1.90;99.90;;;;;;6121988;23;20014;-91
2024/01/27 07:04:55;;;;;;;13.68;3.80;;;1.90;99.90;;;;;;6097615;23;20388;-92
2024/01/27 07:07:26;;;;;;;13.02;3.40;;;2.00;99.90;;;;;;6097857;23;20018;-91
2024/01/27 07:09:56;;;;;;;16.17;4.07;;;2.00;99.90;;;;;;6097302;23;20014;-91
2024/01/27 07:12:21;;;;;;;10.10;3.03;;;2.00;99.90;;;;;;6097465;23;20013;-92
2024/01/27 07:14:47;;;;;;;12.35;3.35;;;2.00;99.90;;;;;;6122593;23;20064;-91
2024/01/27 07:17:13;;;;;;;11.60;3.75;;;2.00;99.90;;;;;;6097706;23;20021;-91
2024/01/27 07:19:38;;;;;;;5.22;1.98;;;2.00;99.90;;;;;;6122272;23;20017;-91
2024/01/27 07:22:04;;;;;;;11.93;4.70;;;2.00;99.90;;;;;;6147003;23;20347;-91
2024/01/27 07:24:30;;;;;;;13.77;3.42;;;2.00;99.90;;;;;;6102551;23;20041;-92
2024/01/27 07:26:55;;;;;;;13.27;4.60;;;2.00;99.90;;;;;;6099246;23;20420;-92
2024/01/27 07:29:21;;;;;;;12.55;3.90;;;2.00;99.90;;;;;;6122533;23;20111;-92
2024/01/27 07:31:47;;;;;;;12.50;3.63;;;2.00;99.90;;;;;;6122205;23;20470;-92
2024/01/27 07:34:13;;;;;;;9.95;3.83;;;2.00;99.90;;;;;;6124037;23;20017;-91
2024/01/27 07:36:38;;;;;;;11.30;2.75;;;2.00;99.90;;;;;;6097543;23;20017;-92
2024/01/27 07:39:04;;;;;;;8.85;2.55;;;2.00;99.90;;;;;;6122552;23;20470;-92
2024/01/27 07:41:30;;;;;;;13.15;4.82;;;2.00;99.90;;;;;;6122489;23;20010;-91
2024/01/27 07:43:56;;;;;;;9.00;3.63;;;2.00;99.90;;;;;;6122116;23;20115;-91
2024/01/27 07:46:22;;;;;;;10.30;4.20;;;2.00;99.90;;;;;;6097587;23;20026;-92
2024/01/27 07:48:51;;;;;;;14.05;4.43;;;2.00;99.90;;;;;;6122320;23;20057;-92
2024/01/27 07:51:17;;;;;;;8.55;3.65;;;2.00;99.90;;;;;;6123947;23;20085;-93
2024/01/27 07:53:42;;;;;;;11.10;2.70;;;2.00;99.90;;;;;;6121302;23;20062;-91
2024/01/27 07:56:08;;;;;;;9.73;3.92;;;2.00;99.90;;;;;;6097472;23;20017;-91
2024/01/27 07:58:34;;;;;;;4.18;1.60;;;2.00;99.90;;;;;;6122526;23;20375;-93
2024/01/27 08:01:00;;;;;;;11.15;3.22;;;2.00;99.90;;;;;;6096689;23;20360;-92
2024/01/27 08:03:25;;;;;;;7.60;3.22;;;2.00;99.90;;;;;;6121106;23;20464;-91
2024/01/27 08:05:51;;;;;;;9.85;2.80;;;2.00;99.90;;;;;;6096520;23;20028;-92
2024/01/27 08:08:17;;;;;;;3.72;2.40;;;2.00;99.90;;;;;;6097733;23;20005;-91
2024/01/27 08:10:42;;;;;;;8.15;3.35;;;2.10;99.90;;;;;;6122137;23;20018;-92
2024/01/27 08:13:08;;;;;;;13.18;2.95;;;2.10;99.90;;;;;;6121992;23;20020;-92
2024/01/27 08:15:33;;;;;;;7.03;3.55;;;2.10;99.90;;;;;;6097438;23;20021;-91
2024/01/27 08:17:59;;;;;;;12.82;4.25;;;2.10;99.90;;;;;;6122184;23;20100;-93
2024/01/27 08:20:25;;;;;;;8.38;3.28;;;2.20;99.90;;;;;;6121753;23;20052;-92
2024/01/27 08:22:51;;;;;;;9.18;3.13;;;2.20;99.90;;;;;;6120882;23;20021;-92
2024/01/27 08:25:17;;;;;;;9.32;2.63;;;2.20;99.90;;;;;;6122705;23;20005;-93
2024/01/27 08:27:43;;;;;;;5.72;2.67;;;2.30;99.90;;;;;;6121685;23;20018;-92
2024/01/27 08:30:10;;;;;;;10.18;3.38;;;2.30;99.90;;;;;;6121583;23;20021;-92
2024/01/27 08:32:35;;;;;;;11.32;4.03;;;2.30;99.90;;;;;;6097074;23;20041;-92
2024/01/27 08:35:01;;;;;;;9.63;2.75;;;2.40;99.90;;;;;;6122067;23;20014;-92
2024/01/27 08:37:27;;;;;;;7.32;2.90;;;2.40;99.90;;;;;;6097508;23;20025;-91
2024/01/27 08:39:53;;;;;;;10.52;2.47;;;2.40;99.90;;;;;;6121524;23;20022;-93
2024/01/27 08:42:18;;;;;;;7.70;2.80;;;2.40;99.90;;;;;;6121162;23;20022;-91
2024/01/27 08:44:44;;;;;;;10.68;3.65;;;2.50;99.90;;;;;;6121622;23;20041;-92
2024/01/27 08:47:09;;;;;;;6.57;2.80;;;2.50;99.90;;;;;;6096587;23;20116;-93
2024/01/27 08:49:35;;;;;;;16.80;3.83;;;2.50;99.90;;;;;;6121062;23;20014;-92
2024/01/27 08:52:01;;;;;;;11.90;3.60;;;2.60;99.90;;;;;;6121002;23;20471;-93
2024/01/27 08:54:26;;;;;;;5.72;2.95;;;2.70;99.90;;;;;;6097077;23;20010;-92
2024/01/27 08:56:52;;;;;;;7.32;2.22;;;2.80;99.90;;;;;;6096083;23;20022;-92
2024/01/27 08:59:17;;;;;;;9.77;3.53;;;2.80;99.90;;;;;;6096373;23;20014;-93
2024/01/27 09:01:43;;;;;;;4.15;1.88;;;2.90;99.90;;;;;;6122606;23;20093;-93
2024/01/27 09:04:09;;;;;;;7.40;2.47;;;3.00;99.90;;;;;;6120665;23;20025;-92
2024/01/27 09:06:35;;;;;;;10.43;3.90;;;3.00;99.90;;;;;;6096705;23;20093;-92
2024/01/27 09:09:00;;;;;;;12.15;3.92;;;3.10;99.90;;;;;;6096294;23;20010;-92
2024/01/27 09:11:34;;;;;;;14.00;4.93;;;3.10;99.90;;;;;;6096316;23;20108;-92
2024/01/27 09:13:59;;;;;;;8.93;2.95;;;3.20;99.90;;;;;;6120908;23;20041;-92
2024/01/27 09:16:25;;;;;;;12.98;4.25;;;3.20;99.90;;;;;;6121051;23;20017;-92
2024/01/27 09:18:50;;;;;;;13.32;5.60;;;3.30;99.90;;;;;;6120002;23;20044;-91
2024/01/27 09:21:20;;;;;;;8.00;2.03;;;3.40;99.90;;;;;;6095576;23;20018;-92
2024/01/27 09:23:47;;;;;;;11.60;4.05;;;3.50;99.90;;;;;;6121913;23;20679;-92
2024/01/27 09:26:13;;;;;;;8.00;3.45;;;3.60;99.90;;;;;;6145304;23;20022;-92
2024/01/27 09:28:43;;;;;;;13.23;4.28;;;3.70;99.90;;;;;;6096374;23;20014;-92
2024/01/27 09:31:10;;;;;;;9.55;4.50;;;3.80;99.90;;;;;;6120962;23;20065;-92
2024/01/27 09:33:36;;;;;;;8.73;4.25;;;3.80;99.90;;;;;;6120283;23;20356;-92
2024/01/27 09:36:02;;;;;;;12.00;4.13;;;3.90;99.90;;;;;;6120558;23;20081;-92
2024/01/27 09:38:28;;;;;;;7.35;3.83;;;4.00;99.90;;;;;;6096271;23;20530;-92
2024/01/27 09:40:53;;;;;;;14.05;5.05;;;4.10;99.90;;;;;;6121415;23;20076;-92
2024/01/27 09:43:20;;;;;;;5.07;2.90;;;4.10;99.90;;;;;;6147298;23;20394;-92
2024/01/27 09:45:46;;;;;;;5.32;3.00;;;4.20;99.90;;;;;;6123233;23;20494;-91
2024/01/27 09:48:12;;;;;;;14.13;4.57;;;4.30;99.90;;;;;;6132955;23;20006;-93
2024/01/27 09:50:41;;;;;;;7.35;2.58;;;4.40;99.90;;;;;;6106554;23;20012;-92
2024/01/27 09:53:08;;;;;;;9.98;4.00;;;4.40;99.90;;;;;;6122305;23;20016;-92
2024/01/27 09:55:34;;;;;;;5.85;2.97;;;4.50;99.90;;;;;;6120563;23;20418;-92
2024/01/27 09:58:00;;;;;;;11.82;4.13;;;4.60;99.90;;;;;;6120268;23;20088;-91
2024/01/27 10:00:27;;;;;;;9.25;2.63;;;4.70;99.90;;;;;;6095226;23;20037;-92
2024/01/27 10:02:54;;;;;;;12.80;4.63;;;4.80;99.90;;;;;;6119244;23;20065;-92
2024/01/27 10:05:20;;;;;;;19.33;5.10;;;4.90;99.90;;;;;;6120364;23;20014;-91
2024/01/27 10:07:46;;;;;;;12.27;4.93;;;4.90;99.90;;;;;;6095476;23;20448;-92
2024/01/27 10:10:11;;;;;;;5.18;2.35;;;5.00;99.90;;;;;;6120319;23;20440;-91
2024/01/27 10:12:41;;;;;;;10.90;4.28;;;5.10;99.90;;;;;;6095977;23;20456;-93
2024/01/27 10:15:17;;;;;;;7.32;2.92;;;5.20;99.90;;;;;;6121809;23;20014;-92
2024/01/27 10:17:43;;;;;;;3.97;2.22;;;5.30;99.90;;;;;;6094590;23;20025;-91
2024/01/27 10:20:13;;;;;;;5.95;2.80;;;5.30;99.90;;;;;;6120026;23;20018;-91
2024/01/27 10:22:40;;;;;;;8.32;3.85;;;5.40;99.90;;;;;;6119096;23;20464;-91
2024/01/27 10:25:07;;;;;;;9.13;3.92;;;5.60;99.90;;;;;;6120020;23;20020;-93
2024/01/27 10:27:32;;;;;;;13.57;4.85;;;5.60;99.90;;;;;;6120644;23;20752;-93
2024/01/27 10:29:58;;;;;;;11.23;3.72;;;5.70;99.90;;;;;;6122090;23;20049;-92
2024/01/27 10:32:24;;;;;;;9.73;3.35;;;5.80;99.90;;;;;;6120956;23;20010;-93
2024/01/27 10:35:01;;;;;;;14.63;3.90;;;5.90;99.90;;;;;;6120190;23;20022;-93
2024/01/27 10:37:26;;;;;;;15.63;5.20;;;6.00;99.90;;;;;;6144867;23;20025;-92
2024/01/27 10:40:03;;;;;;;12.40;4.07;;;6.10;99.90;;;;;;6121371;23;20053;-92
2024/01/27 10:42:32;;;;;;;9.90;3.78;;;6.30;99.90;;;;;;6094948;23;20073;-93
2024/01/27 10:45:00;;;;;;;12.52;3.95;;;6.30;99.90;;;;;;6094805;23;20013;-93
2024/01/27 10:47:29;;;;;;;10.77;3.35;;;6.40;99.90;;;;;;6119720;23;20021;-93
2024/01/27 10:49:58;;;;;;;13.65;4.30;;;6.50;99.90;;;;;;6095682;23;20018;-93
2024/01/27 10:52:28;;;;;;;14.20;4.43;;;6.60;99.90;;;;;;6096207;23;20016;-92
2024/01/27 10:55:07;;;;;;;18.23;4.90;;;6.70;99.90;;;;;;6121529;23;20048;-93
2024/01/27 10:57:37;;;;;;;10.35;3.97;;;6.80;99.90;;;;;;6120777;23;20025;-94
2024/01/27 11:00:06;;;;;;;11.73;5.28;;;6.90;99.90;;;;;;6120914;23;20018;-93
2024/01/27 11:02:35;;;;;;;10.55;3.22;;;7.00;99.90;;;;;;6120063;23;20014;-92
2024/01/27 11:05:07;;;;;;;14.82;3.88;;;7.10;99.90;;;;;;6095519;23;20064;-93
2024/01/27 11:07:34;;;;;;;10.35;4.05;;;7.20;99.90;;;;;;6095699;23;20018;-92
2024/01/27 11:10:00;;;;;;;14.30;4.72;;;7.20;99.90;;;;;;6095845;23;20010;-92
2024/01/27 11:12:26;;;;;;;12.98;4.60;;;7.40;99.90;;;;;;6095753;23;20474;-93
2024/01/27 11:14:52;;;;;;;6.15;2.78;;;7.50;99.90;;;;;;6118677;23;20010;-93
2024/01/27 11:17:19;;;;;;;11.98;4.07;;;7.50;99.90;;;;;;6119553;23;20463;-93
2024/01/27 11:19:45;;;;;;;8.15;4.22;;;7.60;99.90;;;;;;6121005;23;20013;-92
2024/01/27 11:22:26;;;;;;;11.57;3.45;;;7.70;99.90;;;;;;6118899;23;20476;-93
2024/01/27 11:24:53;;;;;;;14.00;3.30;;;7.80;99.90;;;;;;6095743;23;20547;-92
2024/01/27 11:27:26;;;;;;;14.60;4.72;;;7.90;99.90;;;;;;6120004;23;20018;-92
2024/01/27 11:29:52;;;;;;;10.35;3.80;;;8.00;99.90;;;;;;6097759;23;20014;-92
2024/01/27 11:32:17;;;;;;;11.65;3.63;;;8.10;99.90;;;;;;6097477;23;20403;-92
2024/01/27 11:34:47;;;;;;;10.23;3.20;;;8.20;99.90;;;;;;6123120;23;20017;-93
2024/01/27 11:37:14;;;;;;;9.85;3.42;;;8.30;99.90;;;;;;6122313;23;20021;-92
2024/01/27 11:39:40;;;;;;;18.90;4.40;;;8.30;99.90;;;;;;6121686;23;20522;-93
2024/01/27 11:42:14;;;;;;;13.75;4.18;;;8.40;99.90;;;;;;6120808;23;20050;-93
2024/01/27 11:44:41;;;;;;;10.50;3.25;;;8.50;99.90;;;;;;6096849;23;20097;-93
2024/01/27 11:47:17;;;;;;;11.07;3.40;;;8.60;99.90;;;;;;6121807;23;20021;-92
2024/01/27 11:49:52;;;;;;;10.85;3.85;;;8.70;99.90;;;;;;6124751;23;20018;-93
2024/01/27 11:52:18;;;;;;;16.58;4.63;;;8.80;99.90;;;;;;6097668;23;20014;-93
2024/01/27 11:54:44;;;;;;;17.90;4.30;;;8.90;99.90;;;;;;6097819;23;20458;-93
2024/01/27 11:57:09;;;;;;;10.80;3.67;;;9.00;99.90;;;;;;6097252;23;20068;-93
2024/01/27 11:59:35;;;;;;;16.02;4.32;;;9.10;99.90;;;;;;6121906;23;20017;-92
2024/01/27 12:02:02;;;;;;;10.15;2.55;;;9.10;99.90;;;;;;6123235;23;20014;-92
2024/01/27 12:04:28;;;;;;;17.73;3.72;;;9.20;99.90;;;;;;6097199;23;20076;-93
2024/01/27 12:06:54;;;;;;;14.30;3.28;;;9.30;99.90;;;;;;6122045;23;20571;-92
2024/01/27 12:09:20;;;;;;;12.63;3.80;;;9.40;99.90;;;;;;6121713;23;20029;-93
2024/01/27 12:11:46;;;;;;;11.00;3.85;;;9.40;99.90;;;;;;6122167;23;20024;-93
2024/01/27 12:14:11;;;;;;;12.95;3.60;;;9.50;99.90;;;;;;6121548;23;20414;-95
2024/01/27 12:16:38;;;;;;;9.77;4.18;;;9.70;99.90;;;;;;6123100;23;20014;-93
2024/01/27 12:19:04;;;;;;;10.70;2.95;;;9.70;99.90;;;;;;6124570;23;20088;-94
2024/01/27 12:21:30;;;;;;;11.88;2.92;;;9.80;99.90;;;;;;6099557;23;20045;-93
2024/01/27 12:23:57;;;;;;;17.08;3.88;;;10.00;99.90;;;;;;6124631;23;20014;-95
2024/01/27 12:26:26;;;;;;;6.15;1.90;;;10.00;99.90;;;;;;6128141;23;20411;-93
2024/01/27 12:28:52;;;;;;;6.30;1.65;;;10.20;99.90;;;;;;6099489;23;20020;-95
2024/01/27 12:31:18;;;;;;;9.98;2.05;;;10.50;99.90;;;;;;6122986;23;20014;-93
2024/01/27 12:33:51;;;;;;;8.00;3.03;;;11.00;99.90;;;;;;6122496;23;20018;-94
2024/01/27 12:36:20;;;;;;;14.00;2.72;;;11.80;99.90;;;;;;6097670;23;20014;-92
2024/01/27 12:39:00;;;;;;;12.80;3.53;;;12.40;99.90;;;;;;6097285;23;20396;-93
2024/01/27 12:41:26;;;;;;;10.95;2.92;;;13.20;99.90;;;;;;6120943;23;20017;-93
2024/01/27 12:43:53;;;;;;;9.40;2.60;;;13.70;99.90;;;;;;6120455;23;20010;-93
2024/01/27 12:46:19;;;;;;;11.10;2.72;;;14.20;99.90;;;;;;6096128;23;20017;-93